Terminal Aerodrome Forecast
Issued by NWS

Home | Current Version | Previous Version | Text Only | Print | Product List | Glossary On
Versions: 1 2 3 4 5 6 7 8 9 10 11 12 13 14 15
000
FTUS42 KMLB 290544
TAFISM
TAF
KISM 290544Z 2906/3006 30008KT P6SM FEW250
     FM291500 35010KT P6SM SKC
     FM292300 05005KT P6SM SKC
      AMD NOT SKED TIL 291200=

USA.gov is the U.S. government's official web portal to all federal, state and local government web resources and services.